This is the latest recevied weather packets stored in our database for station/object KF0PEC-15. If no packets are shown the sender has not sent any weather packets the latest 10 day(s).
| Time | Temp. | Humidity | Pressure | Rain* | Wind** | Luminosity | Snow |
|---|---|---|---|---|---|---|---|
| 1777939008 | 17.22° C | 34% | 1002.9 hPa | 0 mm | - | 417 W/m² | - |
| 1777938495 | 17.78° C | 34% | 1002.4 hPa | 0 mm | - | 777 W/m² | - |
| 1777937987 | 17.78° C | 35% | 1002.1 hPa | 0 mm | - | 103 W/m² | - |
| 1777937505 | 17.78° C | 36% | 1002 hPa | 0 mm | - | 114 W/m² | - |
| 1777937007 | 17.78° C | 36% | 1002.3 hPa | 0 mm | - | 143 W/m² | - |
| 1777936528 | 17.22° C | 38% | 1002.9 hPa | 0 mm | - | 224 W/m² | - |
| 1777935965 | 17.22° C | 41% | 1002.8 hPa | 0 mm | - | 964 W/m² | - |
| 1777935408 | 17.22° C | 41% | 1003 hPa | 0 mm | - | 126 W/m² | - |
| 1777934868 | 16.67° C | 44% | 1003 hPa | 0 mm | - | 164 W/m² | - |
| 1777934325 | 16.11° C | 44% | 1003.8 hPa | 0 mm | - | 181 W/m² | - |
| 1777933835 | 16.11° C | 43% | 1003.9 hPa | 0 mm | - | 119 W/m² | - |
| 1777933270 | 15° C | 43% | 1004.4 hPa | 0.25 mm | - | 913 W/m² | - |
| 1777932790 | 16.11° C | 43% | 1004.5 hPa | 0.25 mm | - | 443 W/m² | - |
| 1777932288 | 17.22° C | 39% | 1003.5 hPa | 0 mm | - | 348 W/m² | - |
| 1777931788 | 17.22° C | 38% | 1003.2 hPa | 0 mm | - | 393 W/m² | - |
| 1777931265 | 16.67° C | 42% | 1003.6 hPa | 0 mm | - | 486 W/m² | - |
| 1777930688 | 18.33° C | 40% | 1002.2 hPa | 0 mm | - | 413 W/m² | - |
| 1777930109 | 19.44° C | 27% | 1000.5 hPa | 0 mm | - | 373 W/m² | - |
| 1777929515 | 20.56° C | 25% | 999.7 hPa | 0 mm | - | 458 W/m² | - |
| 1777929005 | 21.67° C | 24% | 998.8 hPa | 0 mm | - | 135 W/m² | - |
| 1777928460 | 21.67° C | 24% | 998.6 hPa | 0 mm | - | 122 W/m² | - |
| 1777927908 | 22.22° C | 22% | 998.8 hPa | 0 mm | - | 157 W/m² | - |
| 1777927360 | 22.22° C | 23% | 998.8 hPa | 0 mm | - | 422 W/m² | - |
| 1777926825 | 22.22° C | 23% | 999 hPa | 0 mm | - | 593 W/m² | - |
| 1777926255 | 21.67° C | 24% | 999.6 hPa | 0 mm | - | 371 W/m² | - |
* Rain latest hour (hover to see other rain measurements)
** Current wind speed in m/s (hover to see current wind gust speed)